Time;durP1;ratioP1;P1;durP2;ratioP2;P2;SDS_P1;SDS_P2;PMS_P1;PMS_P2;Temp;Humidity;BMP_temperature;BMP_pressure;BME280_temperature;BME280_humidity;BME280_pressure;Samples;Min_cycle;Max_cycle;Signal;HPM_P1;HPM_P2
2021/05/20 00:00:11;;;;;;;12.28;4.30;;;;;;;12.17;69.19;100542.88;1621088;88;25578;-58
2021/05/20 00:02:41;;;;;;;15.75;4.75;;;;;;;12.08;69.28;100549.17;1621132;88;26151;-58
2021/05/20 00:05:11;;;;;;;7.92;4.05;;;;;;;11.99;69.43;100554.12;1625429;87;25729;-58
2021/05/20 00:07:39;;;;;;;9.88;4.75;;;;;;;11.94;69.56;100551.02;1624470;88;27983;-58
2021/05/20 00:10:08;;;;;;;5.70;3.58;;;;;;;11.92;69.79;100553.00;1624804;88;25667;-57
2021/05/20 00:12:36;;;;;;;11.22;5.50;;;;;;;11.84;71.22;100550.56;1625005;87;25667;-58
2021/05/20 00:15:07;;;;;;;6.17;3.87;;;;;;;11.70;70.53;100555.09;1624199;88;25790;-57
2021/05/20 00:17:34;;;;;;;20.37;4.95;;;;;;;11.65;71.02;100548.83;1622942;87;25690;-57
2021/05/20 00:20:01;;;;;;;9.50;4.08;;;;;;;11.64;71.11;100558.38;1643343;87;28665;-57
2021/05/20 00:22:29;;;;;;;9.63;3.90;;;;;;;11.66;71.25;100562.63;1627193;87;25687;-57
2021/05/20 00:24:57;;;;;;;9.08;3.70;;;;;;;11.67;71.62;100560.28;1642578;85;25632;-57
2021/05/20 00:27:24;;;;;;;10.45;4.45;;;;;;;11.70;71.88;100568.08;1679232;84;25784;-58
2021/05/20 00:29:51;;;;;;;10.88;4.00;;;;;;;11.74;71.68;100563.23;1647192;86;25650;-58
2021/05/20 00:32:18;;;;;;;7.05;3.42;;;;;;;11.79;71.70;100569.53;1641359;86;28088;-58
2021/05/20 00:34:45;;;;;;;13.83;3.92;;;;;;;11.70;71.73;100576.16;1651798;86;25636;-57
2021/05/20 00:37:12;;;;;;;7.80;3.85;;;;;;;11.66;71.73;100571.22;1641834;85;25623;-57
2021/05/20 00:39:38;;;;;;;12.23;3.90;;;;;;;11.69;71.72;100571.77;1632123;87;26366;-57
2021/05/20 00:42:09;;;;;;;10.25;4.17;;;;;;;11.68;71.68;100572.77;1672647;85;25622;-58
2021/05/20 00:45:00;;;;;;;7.60;3.35;;;;;;;11.68;71.85;100566.53;1670000;85;27412;-57
2021/05/20 00:47:30;;;;;;;7.72;3.77;;;;;;;11.68;71.78;100571.92;1668485;84;25639;-57
2021/05/20 00:50:01;;;;;;;11.33;3.42;;;;;;;11.67;72.33;100579.66;1652299;85;25672;-57
2021/05/20 00:52:29;;;;;;;6.53;3.40;;;;;;;11.53;71.55;100587.20;1673700;85;25566;-57
2021/05/20 00:54:59;;;;;;;9.10;4.42;;;;;;;11.52;71.87;100594.09;1676257;85;25667;-57
2021/05/20 00:57:27;;;;;;;9.60;3.70;;;;;;;11.53;71.92;100594.45;1667705;85;27973;-58
2021/05/20 00:59:54;;;;;;;6.60;3.58;;;;;;;11.54;71.99;100597.50;1637728;86;25668;-57
2021/05/20 01:02:22;;;;;;;6.50;3.58;;;;;;;11.52;72.34;100600.32;1630519;87;25545;-57
2021/05/20 01:04:49;;;;;;;11.63;3.95;;;;;;;11.50;71.66;100589.34;1625298;88;26516;-57
2021/05/20 01:07:16;;;;;;;8.98;3.67;;;;;;;11.53;72.11;100590.41;1625298;87;25902;-57
2021/05/20 01:09:43;;;;;;;6.42;3.45;;;;;;;11.45;72.35;100583.05;1625411;88;27435;-57
2021/05/20 01:12:12;;;;;;;4.80;3.65;;;;;;;11.41;72.16;100579.80;1625303;88;25737;-57
2021/05/20 01:14:42;;;;;;;7.75;3.20;;;;;;;11.40;72.08;100561.11;1624416;88;25844;-57
2021/05/20 01:17:10;;;;;;;5.47;3.60;;;;;;;11.42;72.04;100559.13;1671610;85;25749;-58
2021/05/20 01:19:40;;;;;;;8.68;3.87;;;;;;;11.46;71.93;100555.13;1643447;86;25588;-57
2021/05/20 01:22:08;;;;;;;7.72;4.22;;;;;;;11.47;72.04;100545.22;1643393;87;27568;-57
2021/05/20 01:24:36;;;;;;;11.88;3.85;;;;;;;11.49;71.97;100544.06;1622081;87;25728;-57
2021/05/20 01:27:06;;;;;;;6.20;4.05;;;;;;;11.52;72.01;100533.48;1609392;87;25721;-57
2021/05/20 01:29:34;;;;;;;13.25;4.00;;;;;;;11.54;71.92;100529.64;1615795;88;25783;-58
2021/05/20 01:32:03;;;;;;;4.97;4.08;;;;;;;11.53;71.91;100533.33;1674471;85;25727;-58
2021/05/20 01:34:34;;;;;;;6.10;3.95;;;;;;;11.54;72.18;100544.97;1661002;85;27515;-58
2021/05/20 01:37:03;;;;;;;8.08;4.10;;;;;;;11.54;72.42;100536.38;1660168;86;25709;-58
2021/05/20 01:39:30;;;;;;;9.20;4.45;;;;;;;11.56;72.50;100535.73;1664783;85;25337;-58
2021/05/20 01:41:56;;;;;;;7.10;4.40;;;;;;;11.59;72.32;100544.02;1674019;85;26342;-58
2021/05/20 01:44:23;;;;;;;8.13;4.15;;;;;;;11.64;72.25;100541.73;1669145;84;25630;-58
2021/05/20 01:46:50;;;;;;;6.35;4.08;;;;;;;11.67;72.14;100536.55;1668954;84;27479;-58
2021/05/20 01:49:17;;;;;;;7.80;4.60;;;;;;;11.63;72.14;100536.48;1635771;87;25677;-58
2021/05/20 01:51:44;;;;;;;15.83;4.65;;;;;;;11.62;72.11;100531.60;1657077;85;25559;-58
2021/05/20 01:54:11;;;;;;;6.87;4.17;;;;;;;11.65;72.35;100525.06;1655406;85;25799;-58
2021/05/20 01:56:38;;;;;;;5.03;4.50;;;;;;;11.67;72.34;100532.50;1673968;85;25635;-59
2021/05/20 01:59:09;;;;;;;8.80;4.78;;;;;;;11.69;72.18;100531.86;1676750;85;27492;-59
2021/05/20 02:01:36;;;;;;;7.83;5.35;;;;;;;11.70;72.10;100536.22;1635578;87;25784;-58
2021/05/20 02:04:06;;;;;;;5.80;4.90;;;;;;;11.69;71.82;100538.09;1668859;84;25629;-58
2021/05/20 02:06:33;;;;;;;10.18;5.03;;;;;;;11.67;71.47;100537.38;1635620;87;25795;-58
2021/05/20 02:09:06;;;;;;;5.78;4.70;;;;;;;11.65;71.49;100541.23;1669267;85;25675;-58
2021/05/20 02:11:33;;;;;;;9.80;4.92;;;;;;;11.60;71.37;100538.98;1636171;87;27522;-58
2021/05/20 02:14:00;;;;;;;6.85;5.78;;;;;;;11.50;71.43;100535.47;1669916;85;25710;-58
2021/05/20 02:16:27;;;;;;;9.28;5.12;;;;;;;11.45;71.69;100534.56;1666619;85;25559;-58
2021/05/20 02:18:54;;;;;;;11.70;5.55;;;;;;;11.40;71.80;100531.48;1631584;87;26372;-58
2021/05/20 02:21:21;;;;;;;11.48;5.25;;;;;;;11.35;71.95;100529.70;1631792;86;25401;-61
2021/05/20 02:23:47;;;;;;;11.63;5.17;;;;;;;11.30;72.21;100531.50;1631916;86;27461;-58
2021/05/20 02:26:15;;;;;;;10.28;4.72;;;;;;;11.27;72.07;100532.65;1631486;86;25639;-58
2021/05/20 02:28:43;;;;;;;9.10;5.78;;;;;;;11.28;72.30;100533.52;1597252;88;25385;-58
2021/05/20 02:31:11;;;;;;;13.10;5.17;;;;;;;11.32;72.49;100532.72;1587535;88;25773;-58
2021/05/20 02:33:38;;;;;;;18.45;6.90;;;;;;;11.37;72.66;100527.72;1600520;89;25424;-58
2021/05/20 02:36:07;;;;;;;7.45;4.95;;;;;;;11.41;73.37;100525.10;1600711;89;27415;-58
2021/05/20 02:38:34;;;;;;;10.20;5.08;;;;;;;11.46;73.04;100524.15;1600654;89;25626;-58
2021/05/20 02:41:01;;;;;;;10.00;4.65;;;;;;;11.50;73.21;100524.22;1589601;89;25582;-59
2021/05/20 02:43:28;;;;;;;11.28;5.60;;;;;;;11.53;73.19;100531.98;1600627;89;25772;-58
2021/05/20 02:45:54;;;;;;;12.75;4.65;;;;;;;11.58;73.65;100536.44;1600697;89;25634;-58
2021/05/20 02:48:22;;;;;;;11.68;5.35;;;;;;;11.61;73.52;100531.77;1600827;88;27435;-58
2021/05/20 02:50:49;;;;;;;7.95;4.90;;;;;;;11.66;73.27;100536.19;1600553;88;25637;-58
2021/05/20 02:53:17;;;;;;;7.83;4.28;;;;;;;11.71;73.50;100538.79;1600465;88;25654;-59
2021/05/20 02:55:44;;;;;;;12.35;5.10;;;;;;;11.79;73.41;100550.15;1600753;89;26332;-58
2021/05/20 02:58:14;;;;;;;15.50;6.40;;;;;;;11.86;73.38;100551.75;1600686;88;25766;-58
2021/05/20 03:00:39;;;;;;;9.60;5.62;;;;;;;11.89;72.98;100539.34;1600295;89;28169;-58
2021/05/20 03:03:07;;;;;;;10.95;5.08;;;;;;;11.95;73.04;100534.68;1600557;89;25607;-58
2021/05/20 03:05:34;;;;;;;9.13;4.72;;;;;;;12.02;72.86;100532.27;1600530;89;25614;-58
2021/05/20 03:08:01;;;;;;;17.80;6.85;;;;;;;12.04;72.68;100527.06;1600642;89;25767;-58
2021/05/20 03:10:28;;;;;;;11.22;5.40;;;;;;;12.01;72.37;100531.41;1600541;89;25693;-58
2021/05/20 03:12:56;;;;;;;12.95;7.30;;;;;;;12.02;72.78;100530.92;1600628;89;27422;-59
2021/05/20 03:15:24;;;;;;;8.33;4.90;;;;;;;12.05;72.50;100529.28;1600572;89;25622;-58
2021/05/20 03:17:51;;;;;;;14.90;4.95;;;;;;;12.07;72.56;100527.25;1600496;88;25566;-58
2021/05/20 03:20:18;;;;;;;12.03;5.45;;;;;;;12.10;72.46;100524.78;1600552;89;25758;-58
2021/05/20 03:22:48;;;;;;;10.20;5.15;;;;;;;12.09;72.39;100531.17;1587614;88;25603;-58
2021/05/20 03:25:17;;;;;;;11.25;4.87;;;;;;;12.02;72.22;100516.92;1574057;91;28558;-58
2021/05/20 03:27:46;;;;;;;14.70;5.47;;;;;;;12.01;72.43;100508.48;1590138;88;25438;-59
2021/05/20 03:30:14;;;;;;;11.48;6.28;;;;;;;12.03;72.26;100515.93;1622165;87;25633;-58
2021/05/20 03:32:41;;;;;;;13.53;5.50;;;;;;;12.00;72.17;100513.56;1626743;88;26323;-58
2021/05/20 03:35:10;;;;;;;13.98;6.33;;;;;;;12.02;72.69;100514.74;1626630;86;25452;-58
2021/05/20 03:37:37;;;;;;;13.15;5.90;;;;;;;12.08;72.94;100516.82;1626648;88;28096;-58
2021/05/20 03:40:06;;;;;;;12.18;5.37;;;;;;;12.13;72.60;100525.80;1626513;88;25678;-58
2021/05/20 03:42:34;;;;;;;16.87;5.85;;;;;;;12.10;72.25;100526.95;1626704;88;25664;-58
2021/05/20 03:45:04;;;;;;;10.35;6.67;;;;;;;12.09;72.09;100525.77;1626832;88;25795;-59
2021/05/20 03:47:31;;;;;;;14.35;5.78;;;;;;;12.08;71.97;100522.73;1626933;87;25672;-57
2021/05/20 03:49:58;;;;;;;21.33;6.67;;;;;;;12.05;71.85;100520.67;1626861;88;27729;-58
2021/05/20 03:52:25;;;;;;;11.68;5.12;;;;;;;12.02;72.17;100512.05;1647044;86;25616;-58
2021/05/20 03:54:53;;;;;;;19.07;5.92;;;;;;;11.97;72.17;100514.33;1684109;85;25685;-58
2021/05/20 03:57:20;;;;;;;24.05;5.95;;;;;;;11.92;72.77;100517.48;1685240;84;25696;-58
2021/05/20 03:59:47;;;;;;;16.77;5.30;;;;;;;11.94;72.84;100531.63;1679323;83;25548;-58
2021/05/20 04:02:14;;;;;;;7.53;5.17;;;;;;;12.03;73.37;100514.58;1676313;85;27998;-58
2021/05/20 04:04:41;;;;;;;12.05;5.05;;;;;;;12.14;73.24;100526.16;1676287;85;25630;-58
2021/05/20 04:07:08;;;;;;;7.95;4.42;;;;;;;12.23;73.05;100520.36;1676309;84;25628;-58
2021/05/20 04:09:35;;;;;;;13.90;5.10;;;;;;;12.33;73.15;100527.37;1676727;85;26383;-58
2021/05/20 04:12:03;;;;;;;7.37;4.70;;;;;;;12.43;73.04;100525.92;1672782;85;25872;-58
2021/05/20 04:14:31;;;;;;;29.85;19.32;;;;;;;12.54;72.67;100537.01;1674163;85;27397;-58
2021/05/20 04:16:58;;;;;;;9.00;4.97;;;;;;;12.62;72.45;100539.77;1671095;84;25485;-58
2021/05/20 04:19:25;;;;;;;9.60;5.30;;;;;;;12.73;72.47;100543.24;1671015;84;25687;-58
2021/05/20 04:21:52;;;;;;;19.40;6.17;;;;;;;12.84;72.33;100537.58;1671354;84;25757;-57
2021/05/20 04:24:21;;;;;;;11.53;5.25;;;;;;;12.97;72.06;100535.81;1671446;84;25706;-58
2021/05/20 04:26:48;;;;;;;12.65;5.30;;;;;;;13.09;71.86;100533.69;1680888;83;27311;-58
2021/05/20 04:29:15;;;;;;;9.95;5.08;;;;;;;13.21;71.53;100531.08;1680669;83;25833;-58
2021/05/20 04:31:42;;;;;;;10.68;5.45;;;;;;;13.27;70.97;100525.03;1678297;84;25595;-58
2021/05/20 04:34:09;;;;;;;16.15;5.35;;;;;;;13.33;70.39;100516.80;1668922;85;25769;-58
2021/05/20 04:36:36;;;;;;;12.53;5.53;;;;;;;13.33;70.14;100515.44;1668547;84;25573;-57
2021/05/20 04:39:04;;;;;;;7.80;5.42;;;;;;;13.41;70.18;100517.38;1675660;84;27419;-58
2021/05/20 04:41:32;;;;;;;12.55;5.35;;;;;;;13.49;70.01;100521.99;1668354;86;26179;-57
2021/05/20 04:44:00;;;;;;;12.43;5.80;;;;;;;13.54;69.71;100525.88;1668094;84;25556;-57
2021/05/20 04:46:27;;;;;;;11.18;4.40;;;;;;;13.60;69.33;100532.49;1681862;84;25740;-58
2021/05/20 04:48:53;;;;;;;10.13;5.20;;;;;;;13.58;68.93;100531.84;1678649;85;25664;-57
2021/05/20 04:51:20;;;;;;;9.53;5.97;;;;;;;13.59;68.93;100535.72;1678350;84;27336;-58
2021/05/20 04:53:49;;;;;;;21.15;5.90;;;;;;;13.64;68.73;100529.83;1678587;85;27291;-58
2021/05/20 04:56:23;;;;;;;10.82;4.40;;;;;;;13.66;68.30;100534.57;1644628;86;25686;-57
2021/05/20 04:58:45;;;;;;;14.10;4.70;;;;;;;13.56;68.07;100540.08;1667923;84;26490;-60
2021/05/20 05:01:13;;;;;;;7.40;4.40;;;;;;;13.54;68.29;100535.34;1668361;84;25730;-58
2021/05/20 05:03:39;;;;;;;9.25;4.58;;;;;;;13.59;68.49;100530.31;1668363;86;27485;-58
2021/05/20 05:06:06;;;;;;;14.65;4.55;;;;;;;13.61;67.80;100520.19;1675090;84;25675;-58
2021/05/20 05:08:33;;;;;;;10.80;4.58;;;;;;;13.61;67.87;100526.08;1670226;84;25515;-58
2021/05/20 05:11:00;;;;;;;7.55;4.37;;;;;;;13.56;68.13;100533.33;1668384;84;25879;-58
2021/05/20 05:13:27;;;;;;;11.45;4.95;;;;;;;13.57;68.16;100532.32;1668422;84;25588;-58
2021/05/20 05:15:56;;;;;;;13.95;4.53;;;;;;;13.66;68.52;100525.11;1668444;84;27912;-58
2021/05/20 05:18:23;;;;;;;8.13;4.33;;;;;;;13.72;68.36;100512.28;1668299;86;25591;-58
2021/05/20 05:20:50;;;;;;;18.27;5.10;;;;;;;13.81;68.23;100509.09;1668339;84;25610;-57
2021/05/20 05:23:17;;;;;;;11.75;4.30;;;;;;;13.84;68.01;100507.94;1670945;84;25667;-57
2021/05/20 05:25:49;;;;;;;6.78;3.90;;;;;;;13.82;67.81;100505.90;1645817;87;25656;-57
2021/05/20 05:28:16;;;;;;;8.03;4.62;;;;;;;13.86;67.78;100520.77;1679997;84;27414;-57
2021/05/20 05:30:45;;;;;;;12.80;4.55;;;;;;;13.88;67.98;100523.67;1676763;84;25658;-57
2021/05/20 05:33:12;;;;;;;9.65;4.15;;;;;;;13.98;67.49;100522.69;1676319;84;25603;-57
2021/05/20 05:35:39;;;;;;;8.98;4.30;;;;;;;14.07;66.71;100530.64;1676315;84;25756;-58
2021/05/20 05:38:06;;;;;;;5.83;4.20;;;;;;;14.13;66.65;100526.92;1674652;85;25731;-58
2021/05/20 05:40:34;;;;;;;8.35;4.22;;;;;;;14.20;66.47;100515.81;1654465;85;27509;-58
2021/05/20 05:43:01;;;;;;;11.55;5.25;;;;;;;14.32;66.55;100519.86;1659434;85;25795;-58
2021/05/20 05:45:28;;;;;;;18.50;6.12;;;;;;;14.39;66.04;100516.83;1656306;85;25577;-58
2021/05/20 05:47:55;;;;;;;9.93;4.80;;;;;;;14.44;65.84;100520.90;1641823;85;25766;-58
2021/05/20 05:50:22;;;;;;;8.75;5.08;;;;;;;14.40;64.95;100525.28;1665711;82;27166;-58
2021/05/20 05:52:49;;;;;;;16.23;5.70;;;;;;;14.37;64.97;100517.52;1675216;84;27491;-58
2021/05/20 05:55:17;;;;;;;10.93;4.53;;;;;;;14.48;65.09;100519.53;1655638;85;25632;-58
2021/05/20 05:57:44;;;;;;;19.05;5.40;;;;;;;14.53;64.53;100519.89;1671556;85;26213;-58
2021/05/20 06:00:13;;;;;;;11.93;4.78;;;;;;;14.60;64.62;100519.55;1660399;85;25759;-59
2021/05/20 06:02:45;;;;;;;9.88;4.35;;;;;;;14.72;64.35;100521.44;1638730;86;25679;-57
2021/05/20 06:05:13;;;;;;;11.12;3.72;;;;;;;14.79;63.61;100518.91;1620322;88;27446;-57
2021/05/20 06:07:43;;;;;;;14.65;3.50;;;;;;;14.78;63.58;100511.30;1654177;85;26419;-58
2021/05/20 06:10:12;;;;;;;8.93;4.00;;;;;;;14.84;62.49;100506.55;1657014;85;25664;-58
2021/05/20 06:12:40;;;;;;;11.40;3.72;;;;;;;14.85;63.04;100515.51;1657072;85;25748;-57
2021/05/20 06:15:09;;;;;;;10.18;2.98;;;;;;;14.94;63.02;100521.25;1657073;85;25588;-58
2021/05/20 06:17:39;;;;;;;10.65;3.50;;;;;;;15.02;63.33;100525.83;1646851;85;27406;-58
2021/05/20 06:20:08;;;;;;;8.10;3.72;;;;;;;15.19;63.24;100519.88;1643939;85;25585;-58
2021/05/20 06:22:37;;;;;;;7.30;3.42;;;;;;;15.29;62.42;100521.86;1640973;87;25369;-59
2021/05/20 06:25:06;;;;;;;9.53;3.83;;;;;;;15.36;60.82;100524.73;1613447;87;26018;-58
2021/05/20 06:27:33;;;;;;;11.15;3.67;;;;;;;15.41;61.29;100533.20;1609913;87;25601;-58
2021/05/20 06:30:00;;;;;;;10.50;4.00;;;;;;;15.48;61.41;100529.27;1649709;85;27409;-58
2021/05/20 06:32:32;;;;;;;19.02;4.20;;;;;;;15.53;60.76;100525.54;1653165;85;25442;-60
2021/05/20 06:34:58;;;;;;;5.15;3.83;;;;;;;15.49;60.60;100526.89;1651384;85;25731;-61
2021/05/20 06:37:28;;;;;;;14.05;3.98;;;;;;;15.54;60.55;100523.66;1651229;85;26125;-61
2021/05/20 06:39:56;;;;;;;12.60;4.00;;;;;;;15.57;60.07;100527.39;1672234;85;25702;-63
2021/05/20 06:42:23;;;;;;;9.73;3.90;;;;;;;15.58;59.94;100535.86;1663257;85;27871;-57
2021/05/20 06:44:50;;;;;;;7.33;4.08;;;;;;;15.52;59.58;100527.91;1660641;85;25818;-58
2021/05/20 06:47:18;;;;;;;7.67;3.60;;;;;;;15.55;59.39;100519.44;1662139;85;25591;-59
2021/05/20 06:49:45;;;;;;;8.45;4.10;;;;;;;15.45;59.83;100520.98;1663799;84;25755;-57
2021/05/20 06:52:12;;;;;;;11.33;5.25;;;;;;;15.38;60.34;100532.68;1668252;84;25663;-57
2021/05/20 06:54:39;;;;;;;13.85;7.03;;;;;;;15.40;60.51;100537.42;1658833;84;27297;-57
2021/05/20 06:57:17;;;;;;;8.63;4.40;;;;;;;15.46;60.91;100541.65;1662816;85;25712;-57
2021/05/20 07:02:21;;;;;;;9.35;4.70;;;;;;;15.46;59.85;100547.59;1665292;85;27830;-57
2021/05/20 07:04:48;;;;;;;8.58;3.58;;;;;;;15.40;59.90;100548.27;1642779;87;25676;-57
2021/05/20 07:07:14;;;;;;;7.35;3.83;;;;;;;15.40;60.40;100549.63;1633663;87;27816;-57
2021/05/20 07:09:43;;;;;;;10.25;3.90;;;;;;;15.43;60.49;100550.12;1653398;85;26271;-57
2021/05/20 07:12:13;;;;;;;10.08;3.50;;;;;;;15.44;60.08;100553.69;1657248;85;25439;-57
2021/05/20 07:14:40;;;;;;;11.93;3.10;;;;;;;15.42;60.25;100553.84;1652732;85;25754;-57
2021/05/20 07:17:08;;;;;;;18.10;3.50;;;;;;;15.41;60.08;100548.61;1657095;85;25974;-58
2021/05/20 07:19:34;;;;;;;14.78;3.35;;;;;;;15.42;60.08;100550.30;1645710;85;27415;-58
2021/05/20 07:22:03;;;;;;;6.10;3.50;;;;;;;15.41;59.50;100554.89;1658082;85;25788;-57
2021/05/20 07:24:32;;;;;;;4.53;2.90;;;;;;;15.39;60.09;100554.21;1640330;86;25450;-58
2021/05/20 07:26:59;;;;;;;7.78;3.52;;;;;;;15.41;60.00;100554.89;1623668;86;25753;-58
2021/05/20 07:29:26;;;;;;;12.23;3.75;;;;;;;15.47;60.47;100554.68;1614006;87;25517;-58
2021/05/20 07:31:56;;;;;;;8.05;3.83;;;;;;;15.53;59.81;100553.14;1617766;87;26828;-58
2021/05/20 07:34:23;;;;;;;5.42;3.58;;;;;;;15.53;59.94;100554.50;1617043;88;25645;-57
2021/05/20 07:36:50;;;;;;;6.62;3.72;;;;;;;15.58;60.12;100556.20;1616852;87;25774;-58
2021/05/20 07:39:17;;;;;;;9.50;4.15;;;;;;;15.61;59.63;100553.97;1617007;88;25845;-58
2021/05/20 07:41:47;;;;;;;5.58;3.62;;;;;;;15.61;59.80;100547.20;1617128;87;25456;-58
2021/05/20 07:44:13;;;;;;;5.12;3.75;;;;;;;15.65;59.92;100544.98;1616996;88;28058;-57
2021/05/20 07:46:40;;;;;;;5.72;3.52;;;;;;;15.58;59.77;100545.34;1616929;88;25417;-57
2021/05/20 07:49:07;;;;;;;6.95;3.17;;;;;;;15.54;59.67;100546.70;1608866;87;25680;-57
2021/05/20 07:51:34;;;;;;;12.98;4.05;;;;;;;15.48;59.64;100552.31;1607812;87;25768;-57
2021/05/20 07:54:01;;;;;;;6.87;3.27;;;;;;;15.46;60.08;100557.08;1617566;88;25568;-58
2021/05/20 07:56:27;;;;;;;6.12;3.77;;;;;;;15.44;59.87;100548.27;1617047;88;28201;-57
2021/05/20 07:58:54;;;;;;;13.18;3.70;;;;;;;15.36;59.74;100545.06;1604268;88;25657;-57
2021/05/20 08:01:22;;;;;;;7.90;4.33;;;;;;;15.31;59.77;100546.94;1604369;88;25864;-58
2021/05/20 08:03:58;;;;;;;6.08;3.80;;;;;;;15.31;60.03;100550.17;1600293;88;25805;-58
2021/05/20 08:06:26;;;;;;;9.30;4.17;;;;;;;15.32;60.24;100556.76;1601915;87;25565;-58
2021/05/20 08:09:00;;;;;;;12.37;4.20;;;;;;;15.35;60.36;100552.84;1586653;89;27332;-57
2021/05/20 08:11:25;;;;;;;11.12;3.65;;;;;;;15.44;60.60;100557.76;1586247;90;25560;-57
2021/05/20 08:13:52;;;;;;;8.33;4.20;;;;;;;15.56;59.92;100556.34;1591125;88;25643;-57
2021/05/20 08:16:20;;;;;;;15.00;3.65;;;;;;;15.61;60.17;100556.69;1606544;88;26440;-58
2021/05/20 08:18:47;;;;;;;15.58;3.65;;;;;;;15.74;60.51;100555.27;1607961;88;25867;-58
2021/05/20 08:21:15;;;;;;;13.43;3.80;;;;;;;15.88;59.96;100558.65;1601922;87;27888;-57
2021/05/20 08:23:42;;;;;;;14.60;3.98;;;;;;;15.93;60.11;100555.41;1595199;88;25669;-57
2021/05/20 08:26:12;;;;;;;7.03;3.25;;;;;;;16.07;60.11;100547.03;1603057;87;25661;-57
2021/05/20 08:28:38;;;;;;;8.88;3.83;;;;;;;16.19;58.61;100550.18;1602897;87;25802;-58
2021/05/20 08:31:05;;;;;;;11.43;3.60;;;;;;;16.26;58.78;100542.52;1602150;88;25667;-58
2021/05/20 08:33:32;;;;;;;7.75;3.75;;;;;;;16.41;58.87;100544.44;1638555;85;27495;-58
2021/05/20 08:36:00;;;;;;;10.53;3.40;;;;;;;16.55;58.45;100545.00;1663577;84;25609;-58
2021/05/20 08:38:27;;;;;;;5.22;3.20;;;;;;;16.70;58.28;100545.59;1635361;85;25601;-57
2021/05/20 08:40:54;;;;;;;10.75;3.20;;;;;;;16.87;57.30;100544.42;1646514;85;25878;-58
2021/05/20 08:43:22;;;;;;;12.15;3.62;;;;;;;16.95;56.53;100534.54;1616005;87;25746;-58
2021/05/20 08:45:49;;;;;;;10.70;3.25;;;;;;;16.95;55.70;100535.37;1638075;85;27491;-58
2021/05/20 08:48:16;;;;;;;7.17;3.12;;;;;;;16.85;56.62;100539.69;1639139;85;25588;-58
2021/05/20 08:50:45;;;;;;;11.48;3.33;;;;;;;16.89;56.89;100541.52;1664724;84;25677;-58
2021/05/20 08:53:14;;;;;;;10.78;2.98;;;;;;;16.95;56.71;100543.52;1670946;85;26668;-59
2021/05/20 08:55:41;;;;;;;11.20;3.10;;;;;;;17.00;56.46;100534.32;1660479;85;25674;-57
2021/05/20 08:58:10;;;;;;;8.80;2.85;;;;;;;17.12;56.51;100533.88;1632907;86;27431;-58
2021/05/20 09:00:40;;;;;;;21.07;3.50;;;;;;;17.21;55.63;100539.03;1650902;85;25688;-58
2021/05/20 09:03:13;;;;;;;7.90;3.08;;;;;;;17.27;55.23;100537.95;1634664;86;25576;-59
2021/05/20 09:05:41;;;;;;;;;;;;;;;17.22;55.31;100535.79;1673782;85;25818;-59
2021/05/20 09:08:14;;;;;;;5.70;2.92;;;;;;;17.24;55.69;100535.09;1671219;85;25596;-59
2021/05/20 09:10:46;;;;;;;9.48;3.42;;;;;;;17.31;55.65;100531.13;1660546;85;27514;-59
2021/05/20 09:13:18;;;;;;;7.87;2.87;;;;;;;17.31;55.04;100531.95;1632413;87;25718;-58
2021/05/20 09:15:52;;;;;;;11.12;3.12;;;;;;;17.37;55.67;100535.80;1652180;85;25636;-57
2021/05/20 09:18:25;;;;;;;12.65;3.20;;;;;;;17.49;55.15;100534.81;1651955;85;25799;-58
2021/05/20 09:20:56;;;;;;;9.53;3.20;;;;;;;17.58;54.33;100532.86;1645062;85;25621;-58
2021/05/20 09:23:27;;;;;;;15.38;3.90;;;;;;;17.63;54.19;100529.05;1653695;85;27406;-58
2021/05/20 09:26:11;;;;;;;12.80;3.72;;;;;;;17.79;54.52;100531.59;1650567;85;25586;-57
2021/05/20 09:28:48;;;;;;;5.55;3.20;;;;;;;17.95;53.03;100531.86;1632160;87;25646;-58
2021/05/20 09:31:19;;;;;;;11.90;2.85;;;;;;;18.03;53.25;100538.26;1646923;86;26428;-57
2021/05/20 09:33:53;;;;;;;9.30;2.83;;;;;;;18.15;53.36;100539.46;1645953;86;25709;-57
2021/05/20 09:36:24;;;;;;;9.63;3.45;;;;;;;18.23;52.88;100538.51;1649807;85;27547;-57
2021/05/20 09:39:12;;;;;;;6.80;2.67;;;;;;;18.21;52.83;100540.58;1653074;85;25619;-57
2021/05/20 09:41:39;;;;;;;3.70;2.15;;;;;;;18.21;52.15;100541.41;1642459;85;25604;-58
2021/05/20 09:44:30;;;;;;;3.50;2.17;;;;;;;18.27;52.85;100547.96;1632333;87;25815;-58
2021/05/20 09:46:58;;;;;;;11.78;2.72;;;;;;;18.28;52.85;100544.20;1639604;85;25715;-57
2021/05/20 09:49:25;;;;;;;11.28;3.12;;;;;;;18.35;52.53;100547.02;1658420;84;28008;-59
2021/05/20 09:52:21;;;;;;;8.18;2.58;;;;;;;18.46;52.50;100541.89;1658348;84;25588;-59
2021/05/20 09:54:49;;;;;;;10.78;2.72;;;;;;;18.65;52.14;100541.45;1635585;86;25553;-59
2021/05/20 09:57:32;;;;;;;6.78;2.77;;;;;;;18.85;51.89;100528.83;1668584;85;26670;-61
2021/05/20 10:00:01;;;;;;;5.22;2.80;;;;;;;18.98;51.72;100525.92;1668253;85;25657;-58
2021/05/20 10:02:28;;;;;;;2.75;2.33;;;;;;;19.15;51.29;100530.04;1669441;85;27378;-58
2021/05/20 10:04:55;;;;;;;9.85;3.37;;;;;;;19.21;50.78;100529.77;1617359;87;25610;-57
2021/05/20 10:07:31;;;;;;;16.55;2.80;;;;;;;19.29;51.00;100518.70;1669281;85;25602;-57
2021/05/20 10:09:59;;;;;;;9.28;2.60;;;;;;;19.39;49.72;100521.05;1668825;85;25703;-58
2021/05/20 10:12:27;;;;;;;12.28;2.55;;;;;;;19.30;49.89;100512.71;1669107;85;25610;-58
2021/05/20 10:14:54;;;;;;;15.03;3.50;;;;;;;19.27;50.41;100509.05;1635637;86;27970;-58
2021/05/20 10:17:22;;;;;;;6.08;2.65;;;;;;;19.34;50.50;100504.47;1668973;85;25654;-58
2021/05/20 10:19:50;;;;;;;5.17;2.55;;;;;;;19.46;50.60;100504.20;1668827;85;25689;-58
2021/05/20 10:22:17;;;;;;;8.90;2.20;;;;;;;19.55;49.97;100498.90;1668914;85;26733;-58
2021/05/20 10:24:44;;;;;;;7.83;2.83;;;;;;;19.60;50.01;100492.83;1669095;85;25680;-58
2021/05/20 10:27:11;;;;;;;2.25;2.02;;;;;;;19.73;49.54;100489.86;1646150;86;27398;-59
2021/05/20 10:29:39;;;;;;;6.60;2.37;;;;;;;19.79;48.97;100487.66;1694345;84;25577;-58
2021/05/20 10:32:07;;;;;;;6.33;2.33;;;;;;;19.69;48.64;100484.80;1675204;84;25440;-58
2021/05/20 10:34:36;;;;;;;12.88;2.60;;;;;;;19.67;48.81;100488.78;1694528;84;26234;-58
2021/05/20 10:37:05;;;;;;;8.13;2.35;;;;;;;19.64;49.43;100491.90;1694808;84;25745;-59
2021/05/20 10:39:32;;;;;;;5.90;2.85;;;;;;;19.66;49.90;100487.95;1694811;84;27379;-59
2021/05/20 10:42:01;;;;;;;6.58;2.77;;;;;;;19.70;50.14;100489.75;1694608;84;25672;-59
2021/05/20 10:44:28;;;;;;;9.40;3.10;;;;;;;19.64;49.75;100490.54;1694606;83;26277;-58
2021/05/20 10:47:04;;;;;;;8.03;3.10;;;;;;;19.62;49.83;100489.39;1694418;84;26546;-59
2021/05/20 10:49:53;;;;;;;9.65;2.83;;;;;;;19.68;50.28;100492.66;1692737;84;25920;-59
2021/05/20 10:52:42;;;;;;;8.10;3.12;;;;;;;19.77;50.24;100491.97;1635501;87;27414;-59
2021/05/20 10:55:17;;;;;;;4.45;2.62;;;;;;;19.83;50.01;100488.42;1668718;85;25602;-59
2021/05/20 10:57:57;;;;;;;6.28;3.00;;;;;;;19.79;49.25;100489.03;1635462;87;25607;-59
2021/05/20 11:00:45;;;;;;;6.60;2.80;;;;;;;19.81;49.43;100493.23;1669127;85;25766;-59
2021/05/20 11:03:12;;;;;;;7.62;3.33;;;;;;;19.80;49.59;100479.80;1669054;85;25932;-59
2021/05/20 11:05:45;;;;;;;9.48;3.50;;;;;;;19.79;49.28;100474.87;1668996;85;27470;-59
2021/05/20 11:08:36;;;;;;;11.55;3.50;;;;;;;19.74;49.61;100470.53;1668942;85;25710;-59
2021/05/20 11:11:03;;;;;;;8.05;4.20;;;;;;;19.74;49.13;100465.62;1668856;84;25662;-58
2021/05/20 11:13:45;;;;;;;16.15;3.25;;;;;;;19.82;49.27;100464.06;1649780;84;25930;-58
2021/05/20 11:16:19;;;;;;;13.08;3.37;;;;;;;19.93;49.45;100458.05;1668769;84;25849;-58
2021/05/20 11:18:51;;;;;;;13.75;3.33;;;;;;;20.11;49.52;100458.81;1669151;85;27463;-58
2021/05/20 11:21:18;;;;;;;10.18;3.10;;;;;;;20.23;49.08;100450.02;1635532;87;25635;-58
2021/05/20 11:23:51;;;;;;;10.75;3.85;;;;;;;20.41;49.24;100447.52;1668627;85;26385;-61
2021/05/20 11:26:22;;;;;;;11.87;3.83;;;;;;;20.63;48.66;100446.78;1649771;85;26116;-59
2021/05/20 11:29:01;;;;;;;7.70;3.80;;;;;;;20.87;48.09;100443.64;1635891;87;25606;-58
2021/05/20 11:31:29;;;;;;;8.53;3.37;;;;;;;21.00;47.84;100441.41;1669398;85;27351;-59